RYR2GR GCRR-LEZL
Flight info
| Callsign | RYR2GR |
|---|---|
| Flight time | N/A |
| Altitude | 38000 |
| Route | KORAL UG5 SONSO DCT NIRAL UN871 ADUBI DCT VJF |
| Aircraft | B738/M-SDE3FGILRWY/SB1 |
Departure
| Time | 2026-04-27 17:12 |
|---|---|
| Airport | César Manrique-Lanzarote Airport (GCRR) |
Arrival
| Time | N/A |
|---|---|
| Airport | Seville Airport (LEZL) |
| Time | Latitude | Longitude | Altitude | Speed | Heading |
|---|---|---|---|---|---|
| 2026-04-27 16:53 | 28.95012 | -13.60753 | 49 ft | 0 kts | 296° |
| 2026-04-27 17:00 | 28.95001 | -13.60729 | 48 ft | 4 kts | 296° |
| 2026-04-27 17:00 | 28.94989 | -13.60702 | 49 ft | 3 kts | 296° |
| 2026-04-27 17:01 | 28.94981 | -13.60678 | 47 ft | 4 kts | 275° |
| 2026-04-27 17:01 | 28.94987 | -13.60653 | 49 ft | 4 kts | 221° |
| 2026-04-27 17:01 | 28.95008 | -13.60638 | 47 ft | 2 kts | 206° |
| 2026-04-27 17:01 | 28.95010 | -13.60637 | 44 ft | 0 kts | 206° |
| 2026-04-27 17:07 | 28.94995 | -13.60645 | 49 ft | 5 kts | 206° |
| 2026-04-27 17:08 | 28.94942 | -13.60674 | 49 ft | 10 kts | 200° |
| 2026-04-27 17:08 | 28.94893 | -13.60630 | 49 ft | 10 kts | 115° |
| 2026-04-27 17:08 | 28.94849 | -13.60566 | 49 ft | 11 kts | 176° |
| 2026-04-27 17:08 | 28.94769 | -13.60605 | 49 ft | 15 kts | 205° |
| 2026-04-27 17:09 | 28.94645 | -13.60674 | 46 ft | 25 kts | 206° |
| 2026-04-27 17:09 | 28.94473 | -13.60772 | 32 ft | 30 kts | 207° |
| 2026-04-27 17:09 | 28.94289 | -13.60879 | 28 ft | 29 kts | 207° |
| 2026-04-27 17:09 | 28.94115 | -13.60980 | 28 ft | 27 kts | 207° |
| 2026-04-27 17:10 | 28.93951 | -13.61075 | 24 ft | 26 kts | 207° |
| 2026-04-27 17:10 | 28.93797 | -13.61163 | 23 ft | 24 kts | 206° |
| 2026-04-27 17:10 | 28.93676 | -13.61220 | 25 ft | 14 kts | 168° |
| 2026-04-27 17:10 | 28.93623 | -13.61137 | 24 ft | 13 kts | 115° |
| 2026-04-27 17:11 | 28.93617 | -13.61056 | 25 ft | 9 kts | 37° |
| 2026-04-27 17:11 | 28.94085 | -13.60801 | 27 ft | 99 kts | 23° |
| 2026-04-27 17:11 | 28.94902 | -13.60351 | 76 ft | 155 kts | 24° |
| 2026-04-27 17:12 | 28.96817 | -13.58930 | 1464 ft | 182 kts | 53° |
| 2026-04-27 17:12 | 28.97476 | -13.57656 | 2090 ft | 195 kts | 41° |
| 2026-04-27 17:12 | 28.98652 | -13.56790 | 2342 ft | 211 kts | 26° |
| 2026-04-27 17:13 | 28.99941 | -13.55911 | 2855 ft | 217 kts | 29° |
| 2026-04-27 17:13 | 29.01229 | -13.54980 | 3479 ft | 223 kts | 38° |
| 2026-04-27 17:13 | 29.02285 | -13.53566 | 3901 ft | 243 kts | 50° |
| 2026-04-27 17:13 | 29.03330 | -13.52000 | 4626 ft | 251 kts | 49° |
| 2026-04-27 17:14 | 29.04419 | -13.50417 | 5388 ft | 258 kts | 49° |
| 2026-04-27 17:14 | 29.05592 | -13.48817 | 6087 ft | 267 kts | 47° |
| 2026-04-27 17:14 | 29.06825 | -13.47179 | 6783 ft | 274 kts | 47° |
| 2026-04-27 17:14 | 29.08069 | -13.45535 | 7631 ft | 276 kts | 48° |
| 2026-04-27 17:15 | 29.09341 | -13.43851 | 8337 ft | 283 kts | 49° |
| 2026-04-27 17:15 | 29.10632 | -13.42138 | 9133 ft | 286 kts | 49° |
| 2026-04-27 17:15 | 29.11941 | -13.40395 | 9891 ft | 291 kts | 50° |
| 2026-04-27 17:15 | 29.13279 | -13.38612 | 10428 ft | 304 kts | 50° |
| 2026-04-27 17:16 | 29.14711 | -13.36698 | 10605 ft | 329 kts | 50° |
| 2026-04-27 17:16 | 29.16239 | -13.34655 | 10951 ft | 345 kts | 50° |
| 2026-04-27 17:16 | 29.17814 | -13.32548 | 11562 ft | 351 kts | 49° |
| 2026-04-27 17:16 | 29.19408 | -13.30412 | 12290 ft | 354 kts | 49° |
| 2026-04-27 17:17 | 29.20996 | -13.28284 | 12964 ft | 359 kts | 49° |
| 2026-04-27 17:17 | 29.22650 | -13.26067 | 13600 ft | 365 kts | 49° |
| 2026-04-27 17:17 | 29.24306 | -13.23845 | 14247 ft | 368 kts | 49° |
| 2026-04-27 17:18 | 29.27660 | -13.19341 | 15492 ft | 376 kts | 49° |
| 2026-04-27 17:18 | 29.29344 | -13.17077 | 16031 ft | 381 kts | 49° |
| 2026-04-27 17:18 | 29.31063 | -13.14764 | 16733 ft | 382 kts | 49° |
| 2026-04-27 17:18 | 29.32799 | -13.12427 | 17250 ft | 389 kts | 49° |
| 2026-04-27 17:19 | 29.34560 | -13.10057 | 17902 ft | 391 kts | 49° |
| 2026-04-27 17:19 | 29.36320 | -13.07684 | 18527 ft | 393 kts | 49° |
| 2026-04-27 17:19 | 29.38109 | -13.05273 | 18979 ft | 399 kts | 49° |
| 2026-04-27 17:19 | 29.39321 | -13.03638 | 19386 ft | 399 kts | 49° |
| 2026-04-27 17:20 | 29.41125 | -13.01203 | 19907 ft | 403 kts | 49° |
| 2026-04-27 17:20 | 29.42950 | -12.98738 | 20453 ft | 406 kts | 49° |
| 2026-04-27 17:20 | 29.44783 | -12.96262 | 20989 ft | 408 kts | 50° |
| 2026-04-27 17:20 | 29.46632 | -12.93762 | 21444 ft | 413 kts | 49° |
| 2026-04-27 17:21 | 29.48495 | -12.91241 | 22009 ft | 414 kts | 49° |
| 2026-04-27 17:21 | 29.50366 | -12.88709 | 22467 ft | 419 kts | 50° |
| 2026-04-27 17:21 | 29.52236 | -12.86176 | 22918 ft | 422 kts | 50° |
| 2026-04-27 17:21 | 29.54133 | -12.83605 | 23502 ft | 423 kts | 50° |
| 2026-04-27 17:22 | 29.56048 | -12.81007 | 23825 ft | 429 kts | 49° |
| 2026-04-27 17:22 | 29.57979 | -12.78386 | 24296 ft | 429 kts | 49° |
| 2026-04-27 17:22 | 29.59907 | -12.75767 | 24722 ft | 431 kts | 49° |
| 2026-04-27 17:22 | 29.61855 | -12.73120 | 25040 ft | 436 kts | 49° |
| 2026-04-27 17:23 | 29.63816 | -12.70454 | 25456 ft | 438 kts | 49° |
| 2026-04-27 17:23 | 29.65784 | -12.67775 | 25812 ft | 441 kts | 49° |
| 2026-04-27 17:23 | 29.67767 | -12.65075 | 26210 ft | 442 kts | 49° |
| 2026-04-27 17:23 | 29.69753 | -12.62368 | 26588 ft | 445 kts | 49° |
| 2026-04-27 17:24 | 29.71753 | -12.59642 | 27008 ft | 445 kts | 49° |
| 2026-04-27 17:24 | 29.73718 | -12.56864 | 27269 ft | 451 kts | 53° |
| 2026-04-27 17:24 | 29.75533 | -12.53917 | 27667 ft | 452 kts | 54° |
| 2026-04-27 17:24 | 29.77299 | -12.50914 | 27995 ft | 455 kts | 55° |
| 2026-04-27 17:25 | 29.79061 | -12.47872 | 28375 ft | 456 kts | 55° |
| 2026-04-27 17:25 | 29.80820 | -12.44841 | 28774 ft | 457 kts | 55° |
| 2026-04-27 17:25 | 29.82600 | -12.41795 | 29029 ft | 461 kts | 55° |
| 2026-04-27 17:25 | 29.84402 | -12.38728 | 29330 ft | 463 kts | 54° |
| 2026-04-27 17:26 | 29.86213 | -12.35656 | 29732 ft | 463 kts | 54° |
| 2026-04-27 17:26 | 29.88029 | -12.32581 | 30002 ft | 466 kts | 54° |
| 2026-04-27 17:26 | 29.89857 | -12.29483 | 30251 ft | 468 kts | 54° |
| 2026-04-27 17:26 | 29.91691 | -12.26374 | 30469 ft | 471 kts | 54° |
| 2026-04-27 17:27 | 29.93534 | -12.23247 | 30699 ft | 473 kts | 54° |
| 2026-04-27 17:27 | 29.95378 | -12.20113 | 31048 ft | 471 kts | 54° |
| 2026-04-27 17:27 | 29.97216 | -12.16986 | 31419 ft | 470 kts | 55° |
| 2026-04-27 17:27 | 29.99047 | -12.13870 | 31730 ft | 470 kts | 54° |
| 2026-04-27 17:28 | 30.00906 | -12.10771 | 31997 ft | 470 kts | 52° |
| 2026-04-27 17:28 | 30.03051 | -12.07931 | 32251 ft | 469 kts | 44° |
| 2026-04-27 17:28 | 30.07752 | -12.02703 | 32784 ft | 470 kts | 42° |
| 2026-04-27 17:29 | 30.10129 | -12.00111 | 33135 ft | 468 kts | 42° |
| 2026-04-27 17:29 | 30.12489 | -11.97525 | 33442 ft | 468 kts | 42° |
| 2026-04-27 17:29 | 30.14850 | -11.94938 | 33696 ft | 468 kts | 40° |
| 2026-04-27 17:29 | 30.17331 | -11.92506 | 33986 ft | 467 kts | 38° |
| 2026-04-27 17:30 | 30.19875 | -11.90180 | 34231 ft | 466 kts | 36° |
| 2026-04-27 17:30 | 30.25034 | -11.85604 | 34632 ft | 468 kts | 36° |
| 2026-04-27 17:30 | 30.27609 | -11.83311 | 34884 ft | 467 kts | 36° |
| 2026-04-27 17:31 | 30.30173 | -11.81007 | 35090 ft | 467 kts | 37° |
| 2026-04-27 17:31 | 30.32703 | -11.78716 | 35297 ft | 467 kts | 37° |
| 2026-04-27 17:31 | 30.35290 | -11.76360 | 35493 ft | 468 kts | 37° |
| 2026-04-27 17:31 | 30.37811 | -11.74055 | 35696 ft | 468 kts | 37° |
| 2026-04-27 17:32 | 30.40360 | -11.71719 | 35911 ft | 467 kts | 37° |
| 2026-04-27 17:32 | 30.45452 | -11.67046 | 36318 ft | 467 kts | 37° |
| 2026-04-27 17:32 | 30.48001 | -11.64706 | 36509 ft | 467 kts | 37° |
| 2026-04-27 17:33 | 30.50548 | -11.62366 | 36718 ft | 467 kts | 37° |
| 2026-04-27 17:33 | 30.53090 | -11.60030 | 36912 ft | 466 kts | 37° |
| 2026-04-27 17:33 | 30.55115 | -11.58167 | 37058 ft | 466 kts | 37° |